createdAt,value
2019-04-07T00:00:15.320Z,70.39
2019-04-07T00:01:15.759Z,70.39
2019-04-07T00:02:15.510Z,70.64
2019-04-07T00:03:15.089Z,70.36
2019-04-07T00:04:15.046Z,70.2
2019-04-07T00:05:17.313Z,70.54
2019-04-07T00:06:15.924Z,70.16
2019-04-07T00:07:16.004Z,70.45
2019-04-07T00:08:15.617Z,70.2
2019-04-07T00:09:15.440Z,70.01
2019-04-07T00:10:15.491Z,70.26
2019-04-07T00:11:15.189Z,70.16
2019-04-07T00:12:16.341Z,70.29
2019-04-07T00:13:16.096Z,70.45
2019-04-07T00:14:15.250Z,70.29
2019-04-07T00:15:15.594Z,70.45
2019-04-07T00:16:15.935Z,70.58
2019-04-07T00:17:15.974Z,70.39
2019-04-07T00:18:15.547Z,70.36
2019-04-07T00:19:15.889Z,70.26
2019-04-07T00:20:16.023Z,70.36
2019-04-07T00:21:15.870Z,70.36
2019-04-07T00:22:15.862Z,70.36
2019-04-07T00:23:16.136Z,70.64
2019-04-07T00:24:15.846Z,70.26
2019-04-07T00:25:15.485Z,70.45
2019-04-07T00:26:15.760Z,70.36
2019-04-07T00:27:15.780Z,70.36
2019-04-07T00:28:16.137Z,70.36
2019-04-07T00:29:15.608Z,70.26
2019-04-07T00:30:16.848Z,70.54
2019-04-07T00:31:15.894Z,70.26
2019-04-07T00:32:16.285Z,70.36
2019-04-07T00:33:15.640Z,70.54
2019-04-07T00:34:15.978Z,70.45
2019-04-07T00:35:32.107Z,70.45
2019-04-07T00:36:15.715Z,70.36
2019-04-07T00:37:16.976Z,70.45
2019-04-07T00:38:16.352Z,70.36
2019-04-07T00:39:16.026Z,70.45
2019-04-07T00:40:16.406Z,70.26
2019-04-07T00:41:15.803Z,70.36
2019-04-07T00:42:15.826Z,70.16
2019-04-07T00:43:16.292Z,70.45
2019-04-07T00:44:16.767Z,70.45
2019-04-07T00:45:16.400Z,70.07
2019-04-07T00:46:15.905Z,70.07
2019-04-07T00:47:16.486Z,70.36
2019-04-07T00:48:16.821Z,70.54
2019-04-07T00:49:16.226Z,70.45
2019-04-07T00:50:16.814Z,70.45
2019-04-07T00:51:16.746Z,70.36
2019-04-07T00:52:16.178Z,70.36
2019-04-07T00:53:16.648Z,70.36
2019-04-07T00:54:16.333Z,70.36
2019-04-07T00:55:16.749Z,70.45
2019-04-07T00:56:16.368Z,70.54
2019-04-07T00:57:17.281Z,69.59
2019-04-07T00:58:16.411Z,70.54
2019-04-07T00:59:16.645Z,70.64
2019-04-07T01:00:19.101Z,70.54
2019-04-07T01:01:16.619Z,70.54
2019-04-07T01:02:16.871Z,70.54
2019-04-07T01:03:17.420Z,70.54
2019-04-07T01:04:16.442Z,70.36
2019-04-07T01:05:17.993Z,70.45
2019-04-07T01:06:16.564Z,70.54
2019-04-07T01:07:16.937Z,70.45
2019-04-07T01:08:17.096Z,70.07
2019-04-07T01:09:17.249Z,70.54
2019-04-07T01:10:16.400Z,70.45
2019-04-07T01:11:16.748Z,70.26
2019-04-07T01:12:17.323Z,70.16
2019-04-07T01:13:16.646Z,70.64
2019-04-07T01:14:17.016Z,70.36
2019-04-07T01:15:16.493Z,70.36
2019-04-07T01:16:17.344Z,70.54
2019-04-07T01:17:17.884Z,70.26
2019-04-07T01:18:16.556Z,70.54
2019-04-07T01:19:17.807Z,70.54
2019-04-07T01:20:17.567Z,70.45
2019-04-07T01:21:17.684Z,70.36
2019-04-07T01:22:17.541Z,70.36
2019-04-07T01:23:17.021Z,70.36
2019-04-07T01:24:17.496Z,70.45
2019-04-07T01:25:17.330Z,70.26
2019-04-07T01:26:17.203Z,70.54
2019-04-07T01:27:16.875Z,70.36
2019-04-07T01:28:17.276Z,70.45
2019-04-07T01:29:16.951Z,69.97
2019-04-07T01:30:18.306Z,70.07
2019-04-07T01:31:16.822Z,70.36
2019-04-07T01:32:17.231Z,70.36
2019-04-07T01:33:17.476Z,70.36
2019-04-07T01:34:17.234Z,70.16
2019-04-07T01:35:17.682Z,70.45
2019-04-07T01:36:17.243Z,70.45
2019-04-07T01:37:17.755Z,70.45
2019-04-07T01:38:17.882Z,70.36
2019-04-07T01:39:17.434Z,70.26
2019-04-07T01:40:17.004Z,70.36
2019-04-07T01:41:17.726Z,70.45
2019-04-07T01:42:17.922Z,70.36
2019-04-07T01:43:17.562Z,70.36
2019-04-07T01:44:18.031Z,70.36
2019-04-07T01:45:18.051Z,70.16
2019-04-07T01:46:17.607Z,70.54
2019-04-07T01:47:17.736Z,70.36
2019-04-07T01:48:17.426Z,70.36
2019-04-07T01:49:17.500Z,70.26
2019-04-07T01:50:17.445Z,70.07
2019-04-07T01:51:18.436Z,69.68
2019-04-07T01:52:17.321Z,70.07
2019-04-07T01:53:17.993Z,70.16
2019-04-07T01:54:17.601Z,69.78
2019-04-07T01:55:18.088Z,70.26
2019-04-07T01:56:18.330Z,70.54
2019-04-07T01:57:18.388Z,70.36
2019-04-07T01:58:17.410Z,70.07
2019-04-07T01:59:17.921Z,70.26
2019-04-07T02:00:17.419Z,70.36
2019-04-07T02:01:18.352Z,70.32
2019-04-07T02:02:18.931Z,70.36
2019-04-07T02:03:17.769Z,70.42
2019-04-07T02:04:18.214Z,70.36
2019-04-07T02:05:18.693Z,70.54
2019-04-07T02:06:18.017Z,70.54
2019-04-07T02:07:18.304Z,70.54
2019-04-07T02:08:17.908Z,70.07
2019-04-07T02:09:18.387Z,70.07
2019-04-07T02:10:18.853Z,70.13
2019-04-07T02:11:17.640Z,69.78
2019-04-07T02:12:18.093Z,70.07
2019-04-07T02:13:18.659Z,70.45
2019-04-07T02:14:18.916Z,69.93
2019-04-07T02:15:18.607Z,70.07
2019-04-07T02:16:18.232Z,70.03
2019-04-07T02:17:18.347Z,69.65
2019-04-07T02:18:18.815Z,70.32
2019-04-07T02:19:19.029Z,69.78
2019-04-07T02:20:18.102Z,69.78
2019-04-07T02:21:18.384Z,70.32
2019-04-07T02:22:18.959Z,70.13
2019-04-07T02:23:18.442Z,69.65
2019-04-07T02:24:18.008Z,70.03
2019-04-07T02:25:18.328Z,69.74
2019-04-07T02:26:18.971Z,70.51
2019-04-07T02:27:18.656Z,70.42
2019-04-07T02:28:18.889Z,70.45
2019-04-07T02:29:18.264Z,70.54
2019-04-07T02:30:19.733Z,70.03
2019-04-07T02:31:19.582Z,69.74
2019-04-07T02:32:18.081Z,70.07
2019-04-07T02:33:19.089Z,70.22
2019-04-07T02:34:18.132Z,70.22
2019-04-07T02:35:18.811Z,70.51
2019-04-07T02:36:30.615Z,69.93
2019-04-07T02:37:18.188Z,69.65
2019-04-07T02:38:21.054Z,70.42
2019-04-07T02:39:19.400Z,70.51
2019-04-07T02:40:19.131Z,70.32
2019-04-07T02:41:18.512Z,70.51
2019-04-07T02:42:19.399Z,70.51
2019-04-07T02:43:19.291Z,70.42
2019-04-07T02:44:18.318Z,69.93
2019-04-07T02:45:19.792Z,69.65
2019-04-07T02:46:20.249Z,70.03
2019-04-07T02:47:18.633Z,69.93
2019-04-07T02:48:18.388Z,70.22
2019-04-07T02:49:18.824Z,70.42
2019-04-07T02:50:18.435Z,70.13
2019-04-07T02:51:18.454Z,70.51
2019-04-07T02:52:19.140Z,70.51
2019-04-07T02:53:19.421Z,70.32
2019-04-07T02:54:19.437Z,70.51
2019-04-07T02:55:19.489Z,70.03
2019-04-07T02:56:19.049Z,69.74
2019-04-07T02:57:18.987Z,69.84
2019-04-07T02:58:18.595Z,69.56
2019-04-07T02:59:19.786Z,70.51
2019-04-07T03:00:18.899Z,70.42
2019-04-07T03:01:18.920Z,70.22
2019-04-07T03:02:19.419Z,70.22
2019-04-07T03:03:20.081Z,69.65
2019-04-07T03:04:18.993Z,69.74
2019-04-07T03:05:19.708Z,70.13
2019-04-07T03:06:43.709Z,70.13
2019-04-07T03:07:20.083Z,70.42
2019-04-07T03:08:19.707Z,70.32
2019-04-07T03:09:19.089Z,70.42
2019-04-07T03:10:19.537Z,70.22
2019-04-07T03:11:18.857Z,70.13
2019-04-07T03:12:19.121Z,70.51
2019-04-07T03:13:19.373Z,70.32
2019-04-07T03:14:19.954Z,70.32
2019-04-07T03:15:19.463Z,70.61
2019-04-07T03:16:19.655Z,70.42
2019-04-07T03:17:18.977Z,70.42
2019-04-07T03:18:20.130Z,70.32
2019-04-07T03:19:19.519Z,70.32
2019-04-07T03:20:19.365Z,70.03
2019-04-07T03:21:19.696Z,70.42
2019-04-07T03:22:19.075Z,70.32
2019-04-07T03:23:19.100Z,70.42
2019-04-07T03:24:19.495Z,70.13
2019-04-07T03:25:20.582Z,70.42
2019-04-07T03:26:19.158Z,70.32
2019-04-07T03:27:20.083Z,70.13
2019-04-07T03:28:19.706Z,70.42
2019-04-07T03:29:20.624Z,70.42
2019-04-07T03:30:22.221Z,70.13
2019-04-07T03:31:23.542Z,70.32
2019-04-07T03:32:24.479Z,70.42
2019-04-07T03:33:25.914Z,70.51
2019-04-07T03:34:23.203Z,70.32
2019-04-07T03:35:25.635Z,70.51
2019-04-07T03:36:25.830Z,70.42
2019-04-07T03:37:47.400Z,70.03
2019-04-07T03:38:36.624Z,70.32
2019-04-07T03:39:36.144Z,70.03
2019-04-07T03:40:36.775Z,70.03
2019-04-07T03:41:35.936Z,70.03
2019-04-07T03:42:36.996Z,70.32
2019-04-07T03:43:37.857Z,70.32
2019-04-07T03:44:36.653Z,70.32
2019-04-07T03:45:36.422Z,70.03
2019-04-07T03:46:37.539Z,70.03
2019-04-07T03:47:36.307Z,70.42
2019-04-07T03:48:38.013Z,70.22
2019-04-07T03:49:38.045Z,70.13
2019-04-07T03:50:37.142Z,70.32
2019-04-07T03:51:36.671Z,70.51
2019-04-07T03:52:36.575Z,70.51
2019-04-07T03:53:36.428Z,70.42
2019-04-07T03:54:36.634Z,70.42
2019-04-07T03:55:36.527Z,70.51
2019-04-07T03:56:37.221Z,70.32
2019-04-07T03:57:36.525Z,70.32
2019-04-07T03:58:37.536Z,70.7
2019-04-07T03:59:38.361Z,70.32
2019-04-07T04:00:36.569Z,70.32
2019-04-07T04:01:37.941Z,70.51
2019-04-07T04:02:37.869Z,70.32
2019-04-07T04:03:37.381Z,70.13
2019-04-07T04:04:37.251Z,70.51
2019-04-07T04:05:36.434Z,70.42
2019-04-07T04:06:37.482Z,70.51
2019-04-07T04:07:40.205Z,70.13
2019-04-07T04:08:38.285Z,70.51
2019-04-07T04:09:41.245Z,70.61
2019-04-07T04:10:36.893Z,70.13
2019-04-07T04:11:36.852Z,70.51
2019-04-07T04:12:38.175Z,70.61
2019-04-07T04:13:37.830Z,70.13
2019-04-07T04:14:37.631Z,70.42
2019-04-07T04:15:36.618Z,70.42
2019-04-07T04:16:36.636Z,70.51
2019-04-07T04:17:37.234Z,70.61
2019-04-07T04:18:37.725Z,70.32
2019-04-07T04:19:37.402Z,70.13
2019-04-07T04:20:37.242Z,70.32
2019-04-07T04:21:36.727Z,70.32
2019-04-07T04:22:36.747Z,70.13
2019-04-07T04:23:41.370Z,70.03
2019-04-07T04:24:38.090Z,70.32
2019-04-07T04:25:37.465Z,70.13
2019-04-07T04:26:38.286Z,70.51
2019-04-07T04:27:38.593Z,70.03
2019-04-07T04:28:37.035Z,70.03
2019-04-07T04:29:37.385Z,70.42
2019-04-07T04:30:37.143Z,70.32
2019-04-07T04:31:37.209Z,70.22
2019-04-07T04:32:37.247Z,70.32
2019-04-07T04:33:37.719Z,70.32
2019-04-07T04:34:36.988Z,70.51
2019-04-07T04:35:37.507Z,70.32
2019-04-07T04:36:37.220Z,70.42
2019-04-07T04:37:51.262Z,70.51
2019-04-07T04:38:37.334Z,70.22
2019-04-07T04:39:38.750Z,70.42
2019-04-07T04:40:37.512Z,70.32
2019-04-07T04:41:37.136Z,70.13
2019-04-07T04:42:38.040Z,70.22
2019-04-07T04:43:39.128Z,70.32
2019-04-07T04:44:38.484Z,70.47
2019-04-07T04:45:37.214Z,70.32
2019-04-07T04:46:37.497Z,70.61
2019-04-07T04:47:38.068Z,70.51
2019-04-07T04:48:38.634Z,70.32
2019-04-07T04:49:38.318Z,70.22
2019-04-07T04:50:38.448Z,70.38
2019-04-07T04:51:42.522Z,70.38
2019-04-07T04:52:38.438Z,70.42
2019-04-07T04:53:38.134Z,70.22
2019-04-07T04:54:38.539Z,70.51
2019-04-07T04:55:37.408Z,70.42
2019-04-07T04:56:38.271Z,70.22
2019-04-07T04:57:37.778Z,70.42
2019-04-07T04:58:38.518Z,70.32
2019-04-07T04:59:37.513Z,70.38
2019-04-07T05:00:38.519Z,70.38
2019-04-07T05:01:38.649Z,70.22
2019-04-07T05:02:38.219Z,70.51
2019-04-07T05:03:38.628Z,70.32
2019-04-07T05:04:38.477Z,69.46
2019-04-07T05:05:38.911Z,70.32
2019-04-07T05:06:38.316Z,70.09
2019-04-07T05:07:58.839Z,70.47
2019-04-07T05:08:39.177Z,70.32
2019-04-07T05:09:52.597Z,70.32
2019-04-07T05:10:38.030Z,70.42
2019-04-07T05:11:38.090Z,70.28
2019-04-07T05:12:38.024Z,70.09
2019-04-07T05:13:38.502Z,70.19
2019-04-07T05:14:37.910Z,70.09
2019-04-07T05:15:38.070Z,69.65
2019-04-07T05:16:38.760Z,70.51
2019-04-07T05:17:38.210Z,70.28
2019-04-07T05:18:38.444Z,70.03
2019-04-07T05:19:37.882Z,70
2019-04-07T05:20:38.741Z,69.71
2019-04-07T05:21:38.392Z,69.74
2019-04-07T05:22:38.131Z,69.65
2019-04-07T05:23:38.493Z,69.65
2019-04-07T05:24:39.119Z,69.84
2019-04-07T05:25:39.126Z,70.03
2019-04-07T05:26:38.851Z,70.03
2019-04-07T05:27:38.328Z,70.03
2019-04-07T05:28:39.713Z,69.93
2019-04-07T05:29:39.054Z,69.93
2019-04-07T05:30:39.138Z,69.65
2019-04-07T05:31:38.697Z,69.56
2019-04-07T05:32:39.838Z,69.56
2019-04-07T05:33:38.831Z,69.74
2019-04-07T05:34:38.884Z,69.74
2019-04-07T05:35:38.506Z,69.65
2019-04-07T05:36:40.096Z,69.37
2019-04-07T05:37:38.464Z,69.46
2019-04-07T05:38:39.507Z,69.56
2019-04-07T05:39:38.439Z,69.65
2019-04-07T05:40:39.135Z,69.46
2019-04-07T05:41:38.889Z,69.46
2019-04-07T05:42:38.935Z,69.65
2019-04-07T05:43:39.381Z,69.56
2019-04-07T05:44:39.772Z,69.37
2019-04-07T05:45:40.060Z,69.17
2019-04-07T05:46:44.076Z,69.27
2019-04-07T05:47:40.743Z,69.17
2019-04-07T05:48:39.263Z,69.08
2019-04-07T05:49:38.906Z,69.17
2019-04-07T05:50:39.502Z,69.08
2019-04-07T05:51:40.182Z,69.08
2019-04-07T05:52:42.241Z,69.17
2019-04-07T05:53:38.841Z,69.17
2019-04-07T05:54:40.449Z,68.7
2019-04-07T05:55:39.397Z,69.37
2019-04-07T05:56:39.311Z,68.7
2019-04-07T05:57:38.821Z,68.41
2019-04-07T05:58:42.874Z,68.6
2019-04-07T05:59:39.857Z,68.98
2019-04-07T06:00:39.592Z,68.88
2019-04-07T06:01:39.150Z,69.08
2019-04-07T06:02:39.685Z,68.98
2019-04-07T06:03:43.891Z,68.6
2019-04-07T06:04:39.389Z,69.08
2019-04-07T06:05:39.975Z,68.88
2019-04-07T06:06:42.385Z,68.7
2019-04-07T06:07:40.219Z,68.41
2019-04-07T06:08:42.305Z,69.17
2019-04-07T06:09:40.380Z,68.98
2019-04-07T06:10:39.280Z,68.88
2019-04-07T06:11:38.935Z,68.79
2019-04-07T06:12:43.957Z,68.7
2019-04-07T06:13:39.142Z,68.98
2019-04-07T06:14:40.049Z,68.41
2019-04-07T06:15:39.139Z,69.17
2019-04-07T06:16:39.294Z,69.08
2019-04-07T06:17:39.870Z,68.98
2019-04-07T06:18:39.106Z,68.41
2019-04-07T06:19:43.568Z,68.51
2019-04-07T06:20:39.229Z,68.79
2019-04-07T06:21:41.495Z,69.08
2019-04-07T06:22:39.258Z,69.17
2019-04-07T06:23:40.726Z,69.08
2019-04-07T06:24:39.421Z,69.17
2019-04-07T06:25:45.083Z,69.17
2019-04-07T06:26:42.039Z,68.88
2019-04-07T06:27:39.402Z,68.79
2019-04-07T06:28:39.335Z,68.6
2019-04-07T06:29:40.248Z,68.79
2019-04-07T06:30:40.352Z,68.7
2019-04-07T06:31:39.333Z,68.88
2019-04-07T06:32:43.554Z,68.6
2019-04-07T06:33:41.545Z,69.08
2019-04-07T06:34:44.156Z,68.88
2019-04-07T06:35:41.784Z,68.6
2019-04-07T06:36:39.759Z,69.08
2019-04-07T06:37:39.843Z,68.98
2019-04-07T06:38:49.627Z,68.7
2019-04-07T06:39:39.603Z,68.79
2019-04-07T06:40:39.516Z,68.7
2019-04-07T06:41:40.208Z,68.7
2019-04-07T06:42:40.557Z,68.79
2019-04-07T06:43:42.436Z,68.7
2019-04-07T06:44:40.870Z,68.82
2019-04-07T06:45:39.966Z,69.17
2019-04-07T06:46:41.229Z,68.79
2019-04-07T06:47:39.818Z,68.7
2019-04-07T06:48:42.320Z,68.7
2019-04-07T06:49:42.623Z,69.02
2019-04-07T06:50:57.677Z,68.7
2019-04-07T06:51:39.841Z,68.6
2019-04-07T06:52:43.744Z,68.82
2019-04-07T06:53:41.307Z,68.73
2019-04-07T06:54:40.220Z,68.54
2019-04-07T06:55:40.665Z,68.92
2019-04-07T06:56:41.090Z,68.63
2019-04-07T06:57:40.822Z,68.7
2019-04-07T06:58:43.823Z,68.54
2019-04-07T06:59:40.645Z,68.63
2019-04-07T07:00:39.932Z,68.92
2019-04-07T07:01:40.743Z,68.54
2019-04-07T07:02:40.702Z,68.35
2019-04-07T07:03:42.043Z,69.02
2019-04-07T07:04:45.764Z,68.44
2019-04-07T07:05:41.057Z,68.54
2019-04-07T07:06:42.107Z,68.35
2019-04-07T07:07:40.442Z,68.73
2019-04-07T07:08:50.565Z,68.73
2019-04-07T07:09:41.987Z,68.73
2019-04-07T07:10:42.910Z,68.06
2019-04-07T07:11:45.214Z,68.63
2019-04-07T07:12:42.367Z,67.97
2019-04-07T07:13:45.091Z,68.73
2019-04-07T07:14:47.251Z,67.87
2019-04-07T07:15:41.120Z,68.35
2019-04-07T07:16:46.110Z,67.97
2019-04-07T07:17:41.076Z,67.77
2019-04-07T07:18:40.617Z,68.35
2019-04-07T07:19:41.201Z,68.19
2019-04-07T07:20:40.519Z,68.57
2019-04-07T07:21:42.602Z,68
2019-04-07T07:22:46.531Z,67.81
2019-04-07T07:23:44.118Z,68
2019-04-07T07:24:40.691Z,67.71
2019-04-07T07:25:40.879Z,67.81
2019-04-07T07:26:40.865Z,67.81
2019-04-07T07:27:43.184Z,67.91
2019-04-07T07:28:44.903Z,67.81
2019-04-07T07:29:45.313Z,67.81
2019-04-07T07:30:40.552Z,67.81
2019-04-07T07:31:41.337Z,67.81
2019-04-07T07:32:41.129Z,67.43
2019-04-07T07:33:44.731Z,67.43
2019-04-07T07:34:44.167Z,67.43
2019-04-07T07:35:43.165Z,67.14
2019-04-07T07:36:40.819Z,67.24
2019-04-07T07:37:40.980Z,67.05
2019-04-07T07:38:41.699Z,67.33
2019-04-07T07:39:45.055Z,67.33
2019-04-07T07:40:40.836Z,67.14
2019-04-07T07:41:41.114Z,67.18
2019-04-07T07:42:40.908Z,67.27
2019-04-07T07:43:41.490Z,66.99
2019-04-07T07:44:42.585Z,66.6
2019-04-07T07:45:48.071Z,67.08
2019-04-07T07:46:40.959Z,66.79
2019-04-07T07:47:41.590Z,66.7
2019-04-07T07:48:41.143Z,66.85
2019-04-07T07:49:43.844Z,66.79
2019-04-07T07:50:43.429Z,66.99
2019-04-07T07:51:45.170Z,67.08
2019-04-07T07:52:41.021Z,66.89
2019-04-07T07:53:41.608Z,66.99
2019-04-07T07:54:41.100Z,66.89
2019-04-07T07:55:41.279Z,66.89
2019-04-07T07:56:48.489Z,66.79
2019-04-07T07:57:41.412Z,66.89
2019-04-07T07:58:42.124Z,67.08
2019-04-07T07:59:43.212Z,67.36
2019-04-07T08:00:44.887Z,67.08
2019-04-07T08:01:46.138Z,66.99
2019-04-07T08:02:41.552Z,67.18
2019-04-07T08:03:42.467Z,66.99
2019-04-07T08:04:42.347Z,66.31
2019-04-07T08:05:41.553Z,66.41
2019-04-07T08:06:43.617Z,66.31
2019-04-07T08:07:48.358Z,66.31
2019-04-07T08:08:45.106Z,66.41
2019-04-07T08:09:42.113Z,66.6
2019-04-07T08:10:42.680Z,66.5
2019-04-07T08:11:42.384Z,66.7
2019-04-07T08:12:42.274Z,66.41
2019-04-07T08:13:46.984Z,66.7
2019-04-07T08:14:42.554Z,66.41
2019-04-07T08:15:42.536Z,66.5
2019-04-07T08:16:42.467Z,66.22
2019-04-07T08:17:42.059Z,66.41
2019-04-07T08:18:46.667Z,66.22
2019-04-07T08:19:46.617Z,66.13
2019-04-07T08:20:45.984Z,66.41
2019-04-07T08:21:43.513Z,66.7
2019-04-07T08:22:46.083Z,66.41
2019-04-07T08:23:47.086Z,66.5
2019-04-07T08:24:41.690Z,66.5
2019-04-07T08:25:42.517Z,66.22
2019-04-07T08:26:42.573Z,66.5
2019-04-07T08:27:42.039Z,66.41
2019-04-07T08:28:42.756Z,66.5
2019-04-07T08:29:42.286Z,66.5
2019-04-07T08:30:47.529Z,65.68
2019-04-07T08:31:42.677Z,66.25
2019-04-07T08:32:42.181Z,66.31
2019-04-07T08:33:42.131Z,66.54
2019-04-07T08:34:42.642Z,66.16
2019-04-07T08:35:43.436Z,66.22
2019-04-07T08:36:45.618Z,66.5
2019-04-07T08:37:45.684Z,66.63
2019-04-07T08:38:42.624Z,66.5
2019-04-07T08:39:42.271Z,66.44
2019-04-07T08:40:42.982Z,65.97
2019-04-07T08:41:45.076Z,65.87
2019-04-07T08:42:42.070Z,66.35
2019-04-07T08:43:42.426Z,65.87
2019-04-07T08:44:44.043Z,65.77
2019-04-07T08:45:42.466Z,66.25
2019-04-07T08:46:44.682Z,66.25
2019-04-07T08:47:42.427Z,66.06
2019-04-07T08:48:42.393Z,65.87
2019-04-07T08:49:43.003Z,65.77
2019-04-07T08:50:43.467Z,65.68
2019-04-07T08:51:43.759Z,65.58
2019-04-07T08:52:45.613Z,65.87
2019-04-07T08:53:46.682Z,65.58
2019-04-07T08:54:43.188Z,65.68
2019-04-07T08:55:42.784Z,65.68
2019-04-07T08:56:43.545Z,66.16
2019-04-07T08:57:43.418Z,66.54
2019-04-07T08:58:42.880Z,66.25
2019-04-07T08:59:45.291Z,66.06
2019-04-07T09:00:42.719Z,66.35
2019-04-07T09:01:43.454Z,65.87
2019-04-07T09:02:42.777Z,66.35
2019-04-07T09:03:47.306Z,66.44
2019-04-07T09:04:46.558Z,66.25
2019-04-07T09:05:43.493Z,66.54
2019-04-07T09:06:43.805Z,66.35
2019-04-07T09:07:43.570Z,66.25
2019-04-07T09:08:43.946Z,66.25
2019-04-07T09:09:50.009Z,66.54
2019-04-07T09:10:42.968Z,65.87
2019-04-07T09:11:44.553Z,66.73
2019-04-07T09:12:44.003Z,66.35
2019-04-07T09:13:44.095Z,65.77
2019-04-07T09:14:44.059Z,66.44
2019-04-07T09:15:48.701Z,65.77
2019-04-07T09:16:44.679Z,66.25
2019-04-07T09:17:48.701Z,66.16
2019-04-07T09:19:01.017Z,65.58
2019-04-07T09:19:44.163Z,65.68
2019-04-07T09:20:49.051Z,65.87
2019-04-07T09:21:49.359Z,66.25
2019-04-07T09:22:43.293Z,65.97
2019-04-07T09:23:43.009Z,66.06
2019-04-07T09:24:43.977Z,65.97
2019-04-07T09:25:44.939Z,66.25
2019-04-07T09:26:45.631Z,65.77
2019-04-07T09:27:43.301Z,65.68
2019-04-07T09:28:43.145Z,65.68
2019-04-07T09:29:43.263Z,65.87
2019-04-07T09:30:43.403Z,65.87
2019-04-07T09:31:43.518Z,65.58
2019-04-07T09:32:44.861Z,65.68
2019-04-07T09:33:44.235Z,65.58
2019-04-07T09:34:43.609Z,65.68
2019-04-07T09:35:43.758Z,65.77
2019-04-07T09:36:44.057Z,65.68
2019-04-07T09:37:44.515Z,66
2019-04-07T09:38:43.268Z,66.25
2019-04-07T09:40:02.899Z,65.87
2019-04-07T09:40:47.663Z,65.77
2019-04-07T09:41:45.326Z,66.06
2019-04-07T09:42:43.613Z,65.97
2019-04-07T09:43:43.902Z,66.09
2019-04-07T09:44:44.210Z,66.09
2019-04-07T09:45:43.654Z,65.87
2019-04-07T09:46:50.109Z,66
2019-04-07T09:47:46.812Z,66
2019-04-07T09:48:43.910Z,66.09
2019-04-07T09:49:49.132Z,66.09
2019-04-07T09:50:44.146Z,65.9
2019-04-07T09:51:43.837Z,65.9
2019-04-07T09:52:49.012Z,65.81
2019-04-07T09:53:43.839Z,65.81
2019-04-07T09:54:43.902Z,65.81
2019-04-07T09:55:46.008Z,66.09
2019-04-07T09:56:44.038Z,66.09
2019-04-07T09:57:45.066Z,65.9
2019-04-07T09:58:46.945Z,66
2019-04-07T09:59:43.704Z,65.55
2019-04-07T10:00:44.337Z,64.79
2019-04-07T10:01:47.396Z,64.25
2019-04-07T10:02:43.769Z,63.03
2019-04-07T10:03:43.790Z,62.2
2019-04-07T10:04:45.087Z,61.37
2019-04-07T10:05:43.835Z,61.21
2019-04-07T10:06:43.857Z,61.11
2019-04-07T10:07:46.678Z,60.35
2019-04-07T10:08:44.313Z,60.35
2019-04-07T10:09:44.512Z,60.25
2019-04-07T10:10:43.944Z,59.51
2019-04-07T10:11:43.997Z,59.12
2019-04-07T10:12:44.751Z,58.2
2019-04-07T10:13:44.153Z,57.36
2019-04-07T10:14:44.286Z,56.81
2019-04-07T10:15:44.349Z,56.26
2019-04-07T10:16:44.233Z,55.71
2019-04-07T10:17:44.099Z,55.26
2019-04-07T10:18:45.877Z,54.61
2019-04-07T10:19:45.742Z,53.48
2019-04-07T10:20:45.035Z,52.55
2019-04-07T10:21:45.069Z,51.77
2019-04-07T10:22:46.130Z,51.61
2019-04-07T10:23:44.238Z,52.57
2019-04-07T10:24:44.784Z,52.67
2019-04-07T10:25:44.597Z,52.93
2019-04-07T10:26:45.503Z,53.77
2019-04-07T10:27:45.197Z,55.02
2019-04-07T10:28:46.148Z,55.31
2019-04-07T10:29:45.308Z,55.77
2019-04-07T10:30:44.448Z,56.6
2019-04-07T10:31:45.159Z,56.99
2019-04-07T10:32:45.067Z,57.54
2019-04-07T10:33:44.939Z,58.6
2019-04-07T10:34:46.048Z,58.31
2019-04-07T10:35:44.523Z,58.89
2019-04-07T10:36:45.077Z,59.47
2019-04-07T10:37:45.364Z,60.01
2019-04-07T10:38:45.083Z,60.3
2019-04-07T10:39:46.141Z,60.75
2019-04-07T10:40:46.587Z,61.14
2019-04-07T10:41:45.247Z,61.33
2019-04-07T10:42:44.937Z,61.33
2019-04-07T10:43:45.246Z,61.91
2019-04-07T10:44:45.968Z,61.71
2019-04-07T10:45:44.878Z,61.97
2019-04-07T10:46:45.017Z,62.55
2019-04-07T10:47:46.010Z,63.12
2019-04-07T10:48:46.632Z,62.74
2019-04-07T10:49:57.442Z,63.12
2019-04-07T10:50:45.179Z,62.84
2019-04-07T10:51:45.813Z,62.74
2019-04-07T10:52:44.902Z,63.22
2019-04-07T10:53:45.190Z,63.02
2019-04-07T10:54:45.963Z,63.22
2019-04-07T10:55:45.311Z,63.76
2019-04-07T10:56:45.941Z,64.05
2019-04-07T10:57:46.917Z,64.05
2019-04-07T10:58:46.084Z,63.96
2019-04-07T10:59:45.400Z,64.05
2019-04-07T11:00:50.866Z,63.67
2019-04-07T11:01:45.778Z,64.05
2019-04-07T11:02:46.422Z,64.25
2019-04-07T11:03:45.418Z,64.63
2019-04-07T11:04:45.188Z,64.34
2019-04-07T11:05:45.472Z,64.63
2019-04-07T11:06:46.363Z,64.82
2019-04-07T11:07:46.040Z,64.92
2019-04-07T11:08:45.444Z,65.08
2019-04-07T11:09:46.324Z,65.11
2019-04-07T11:10:45.330Z,65.08
2019-04-07T11:11:48.062Z,64.59
2019-04-07T11:12:45.795Z,65.17
2019-04-07T11:13:45.758Z,64.98
2019-04-07T11:14:45.557Z,64.34
2019-04-07T11:15:45.444Z,63.22
2019-04-07T11:16:46.284Z,62.58
2019-04-07T11:17:45.873Z,61.43
2019-04-07T11:18:46.186Z,60.59
2019-04-07T11:19:46.002Z,60.42
2019-04-07T11:20:45.628Z,60.91
2019-04-07T11:21:46.671Z,60.42
2019-04-07T11:22:46.373Z,60.04
2019-04-07T11:23:46.740Z,60.81
2019-04-07T11:24:45.892Z,61
2019-04-07T11:25:46.199Z,61.39
2019-04-07T11:26:45.966Z,61.68
2019-04-07T11:27:46.804Z,61.65
2019-04-07T11:28:46.925Z,62.03
2019-04-07T11:29:46.167Z,61.84
2019-04-07T11:30:46.238Z,61.94
2019-04-07T11:31:46.148Z,61.74
2019-04-07T11:32:47.745Z,61.91
2019-04-07T11:33:46.041Z,61.71
2019-04-07T11:34:46.660Z,62.29
2019-04-07T11:35:46.596Z,62.48
2019-04-07T11:36:46.755Z,62.38
2019-04-07T11:37:47.266Z,62.38
2019-04-07T11:38:46.558Z,62.38
2019-04-07T11:39:46.840Z,62.68
2019-04-07T11:40:52.503Z,63.25
2019-04-07T11:41:47.091Z,63.25
2019-04-07T11:42:48.039Z,63.15
2019-04-07T11:43:46.846Z,63.15
2019-04-07T11:44:46.764Z,63.15
2019-04-07T11:46:02.955Z,63.15
2019-04-07T11:46:46.787Z,63.25
2019-04-07T11:47:47.044Z,64.02
2019-04-07T11:48:47.455Z,64.02
2019-04-07T11:49:48.497Z,64.02
2019-04-07T11:50:47.209Z,64.12
2019-04-07T11:51:46.826Z,64.18
2019-04-07T11:52:46.324Z,64.28
2019-04-07T11:53:46.480Z,63.99
2019-04-07T11:54:46.630Z,64.5
2019-04-07T11:55:46.559Z,64.28
2019-04-07T11:56:47.196Z,64.31
2019-04-07T11:57:54.987Z,64.66
2019-04-07T11:58:47.619Z,64.18
2019-04-07T11:59:47.272Z,64.37
2019-04-07T12:00:47.459Z,64.56
2019-04-07T12:01:50.167Z,65.14
2019-04-07T12:02:49.266Z,64.76
2019-04-07T12:03:47.799Z,64.98
2019-04-07T12:04:46.852Z,64.56
2019-04-07T12:05:46.904Z,64.85
2019-04-07T12:06:51.639Z,65.75
2019-04-07T12:07:46.803Z,65.46
2019-04-07T12:08:47.784Z,65.94
2019-04-07T12:09:47.709Z,65.56
2019-04-07T12:11:02.548Z,65.56
2019-04-07T12:11:48.150Z,65.66
2019-04-07T12:12:47.308Z,65.27
2019-04-07T12:13:47.951Z,65.08
2019-04-07T12:14:52.379Z,65.08
2019-04-07T12:15:47.370Z,65.17
2019-04-07T12:16:47.017Z,65.17
2019-04-07T12:17:47.262Z,65.01
2019-04-07T12:18:51.959Z,64.98
2019-04-07T12:19:47.338Z,65.08
2019-04-07T12:20:48.297Z,64.89
2019-04-07T12:21:48.104Z,64.79
2019-04-07T12:22:51.120Z,65.08
2019-04-07T12:23:47.068Z,65.2
2019-04-07T12:24:48.010Z,64.92
2019-04-07T12:25:47.178Z,65.2
2019-04-07T12:26:47.701Z,64.82
2019-04-07T12:27:49.189Z,65.01
2019-04-07T12:28:52.359Z,65.11
2019-04-07T12:29:48.136Z,64.92
2019-04-07T12:30:48.223Z,64.82
2019-04-07T12:31:47.515Z,64.43
2019-04-07T12:32:47.787Z,64.63
2019-04-07T12:33:48.584Z,64.34
2019-04-07T12:34:50.931Z,64.34
2019-04-07T12:35:55.078Z,64.25
2019-04-07T12:36:47.620Z,64.63
2019-04-07T12:37:47.775Z,64.53
2019-04-07T12:38:48.639Z,64.63
2019-04-07T12:39:51.011Z,64.43
2019-04-07T12:40:47.504Z,64.43
2019-04-07T12:41:47.759Z,64.73
2019-04-07T12:42:48.249Z,64.63
2019-04-07T12:43:51.680Z,64.25
2019-04-07T12:44:48.494Z,64.73
2019-04-07T12:45:49.346Z,64.25
2019-04-07T12:46:47.619Z,64.34
2019-04-07T12:47:48.082Z,64.92
2019-04-07T12:48:47.990Z,65.01
2019-04-07T12:49:49.070Z,64.92
2019-04-07T12:50:52.255Z,64.73
2019-04-07T12:51:52.292Z,64.63
2019-04-07T12:52:48.726Z,64.92
2019-04-07T12:53:47.921Z,64.86
2019-04-07T12:54:48.245Z,64.73
2019-04-07T12:56:00.198Z,64.43